createdAt,value
2023-01-01T00:01:41.881Z,13.87
2023-01-01T00:04:12.987Z,13.86
2023-01-01T00:06:40.128Z,13.92
2023-01-01T00:09:26.674Z,13.89
2023-01-01T00:11:53.332Z,13.95
2023-01-01T00:14:19.865Z,13.98
2023-01-01T00:16:46.468Z,13.89
2023-01-01T00:19:12.977Z,13.84
2023-01-01T00:21:40.099Z,13.84
2023-01-01T00:24:07.172Z,13.85
2023-01-01T00:26:35.565Z,13.86
2023-01-01T00:29:02.457Z,13.86
2023-01-01T00:31:29.120Z,13.99
2023-01-01T00:33:56.482Z,13.99
2023-01-01T00:36:24.824Z,13.99
2023-01-01T00:38:51.567Z,13.99
2023-01-01T00:41:18.287Z,13.93
2023-01-01T00:43:44.817Z,13.89
2023-01-01T00:46:12.136Z,13.87
2023-01-01T00:48:39.202Z,13.88
2023-01-01T00:51:05.958Z,13.85
2023-01-01T00:53:32.620Z,13.97
2023-01-01T00:55:59.061Z,13.98
2023-01-01T00:58:25.848Z,13.98
2023-01-01T01:00:53.386Z,13.93
2023-01-01T01:03:28.947Z,13.89
2023-01-01T01:05:57.911Z,13.89
2023-01-01T01:08:30.493Z,13.86
2023-01-01T01:11:09.019Z,13.86
2023-01-01T01:13:36.247Z,13.89
2023-01-01T01:16:09.271Z,13.87
2023-01-01T01:18:35.934Z,13.89
2023-01-01T01:21:02.437Z,13.85
2023-01-01T01:23:28.899Z,13.91
2023-01-01T01:25:55.311Z,13.92
2023-01-01T01:28:21.713Z,13.88
2023-01-01T01:30:48.151Z,13.81
2023-01-01T01:33:14.845Z,13.75
2023-01-01T01:35:41.299Z,13.71
2023-01-01T01:38:07.877Z,13.71
2023-01-01T01:40:34.392Z,13.81
2023-01-01T01:43:00.850Z,13.73
2023-01-01T01:45:33.224Z,13.71
2023-01-01T01:48:00.822Z,13.72
2023-01-01T01:50:31.606Z,13.67
2023-01-01T01:53:09.119Z,13.67
2023-01-01T01:55:41.908Z,13.73
2023-01-01T01:58:11.529Z,13.65
2023-01-01T02:00:37.976Z,13.62
2023-01-01T02:03:08.162Z,13.63
2023-01-01T02:05:35.951Z,13.65
2023-01-01T02:08:04.870Z,13.63
2023-01-01T02:10:32.203Z,13.57
2023-01-01T02:12:59.199Z,13.60
2023-01-01T02:15:30.568Z,13.60
2023-01-01T02:18:06.611Z,13.52
2023-01-01T02:20:52.497Z,13.53
2023-01-01T02:23:24.805Z,13.46
2023-01-01T02:26:16.051Z,13.60
2023-01-01T02:28:48.528Z,13.56
2023-01-01T02:31:23.665Z,13.51
2023-01-01T02:33:53.491Z,13.56
2023-01-01T02:36:22.938Z,13.56
2023-01-01T02:38:53.599Z,13.55
2023-01-01T02:41:25.545Z,13.54
2023-01-01T02:43:52.478Z,13.56
2023-01-01T02:48:52.392Z,13.63
2023-01-01T02:51:38.313Z,13.58
2023-01-01T02:54:17.109Z,13.62
2023-01-01T02:56:46.636Z,13.53
2023-01-01T03:00:04.127Z,13.57
2023-01-01T03:03:08.664Z,13.52
2023-01-01T03:06:29.212Z,13.54
2023-01-01T03:09:29.391Z,13.54
2023-01-01T03:12:13.857Z,13.46
2023-01-01T03:14:48.221Z,13.52
2023-01-01T03:17:27.932Z,13.45
2023-01-01T03:19:57.215Z,13.39
2023-01-01T03:22:30.629Z,13.41
2023-01-01T03:25:00.308Z,13.44
2023-01-01T03:27:39.332Z,13.35
2023-01-01T03:30:09.222Z,13.40
2023-01-01T03:33:00.203Z,13.43
2023-01-01T03:35:30.887Z,13.35
2023-01-01T03:38:00.336Z,13.42
2023-01-01T03:40:31.095Z,13.50
2023-01-01T03:43:08.792Z,13.49
2023-01-01T03:45:43.297Z,13.45
2023-01-01T03:48:11.486Z,13.38
2023-01-01T03:50:49.147Z,13.32
2023-01-01T03:53:42.898Z,13.23
2023-01-01T03:56:15.498Z,13.33
2023-01-01T03:58:51.910Z,13.37
2023-01-01T04:01:25.792Z,13.28
2023-01-01T04:03:53.824Z,13.29
2023-01-01T04:06:20.793Z,13.36
2023-01-01T04:08:51.044Z,13.28
2023-01-01T04:11:41.336Z,13.34
2023-01-01T04:14:08.649Z,13.34
2023-01-01T04:16:35.128Z,13.34
2023-01-01T04:19:01.603Z,13.29
2023-01-01T04:21:28.127Z,13.36
2023-01-01T04:23:54.559Z,13.38
2023-01-01T04:26:20.986Z,13.31
2023-01-01T04:28:47.414Z,13.31
2023-01-01T04:31:13.851Z,13.25
2023-01-01T04:33:40.450Z,13.30
2023-01-01T04:36:09.109Z,13.32
2023-01-01T04:38:36.660Z,13.28
2023-01-01T04:41:04.022Z,13.28
2023-01-01T04:43:31.855Z,13.34
2023-01-01T04:45:59.925Z,13.33
2023-01-01T04:48:27.622Z,13.34
2023-01-01T04:50:56.093Z,13.33
2023-01-01T04:53:22.528Z,13.33
2023-01-01T04:55:48.946Z,13.19
2023-01-01T04:58:15.476Z,13.22
2023-01-01T05:00:41.911Z,13.18
2023-01-01T05:03:08.495Z,13.16
2023-01-01T05:05:35.010Z,13.09
2023-01-01T05:08:01.488Z,13.13
2023-01-01T05:10:27.900Z,13.06
2023-01-01T05:12:54.397Z,13.06
2023-01-01T05:15:20.836Z,12.99
2023-01-01T05:17:47.323Z,13.00
2023-01-01T05:20:13.789Z,13.01
2023-01-01T05:22:40.237Z,13.04
2023-01-01T05:25:07.277Z,13.03
2023-01-01T05:27:33.752Z,12.99
2023-01-01T05:30:00.207Z,13.02
2023-01-01T05:32:26.737Z,13.08
2023-01-01T05:34:53.375Z,13.16
2023-01-01T05:37:19.862Z,13.17
2023-01-01T05:39:46.281Z,13.18
2023-01-01T05:42:12.746Z,13.19
2023-01-01T05:44:39.188Z,13.13
2023-01-01T05:47:05.656Z,13.14
2023-01-01T05:49:32.167Z,13.12
2023-01-01T05:51:58.588Z,13.09
2023-01-01T05:54:24.989Z,13.09
2023-01-01T05:56:51.436Z,13.08
2023-01-01T05:59:17.909Z,13.18
2023-01-01T06:01:46.150Z,13.21
2023-01-01T06:04:12.833Z,13.17
2023-01-01T06:06:39.297Z,13.18
2023-01-01T06:09:05.816Z,13.23
2023-01-01T06:11:32.469Z,13.20
2023-01-01T06:14:00.981Z,13.20
2023-01-01T06:16:29.152Z,13.21
2023-01-01T06:18:56.037Z,13.25
2023-01-01T06:21:24.804Z,13.21
2023-01-01T06:23:51.386Z,13.25
2023-01-01T06:26:21.294Z,13.18
2023-01-01T06:28:48.691Z,13.15
2023-01-01T06:31:20.937Z,13.22
2023-01-01T06:33:48.213Z,13.31
2023-01-01T06:36:16.721Z,13.24
2023-01-01T06:38:46.338Z,13.22
2023-01-01T06:41:17.572Z,13.27
2023-01-01T06:43:44.744Z,13.25
2023-01-01T06:46:16.239Z,13.34
2023-01-01T06:48:43.357Z,13.39
2023-01-01T06:51:15.440Z,13.26
2023-01-01T06:53:41.918Z,13.32
2023-01-01T06:56:09.106Z,13.28
2023-01-01T06:58:35.802Z,13.33
2023-01-01T07:01:16.535Z,13.26
2023-01-01T07:03:44.888Z,13.21
2023-01-01T07:06:11.607Z,13.07
2023-01-01T07:08:38.095Z,13.01
2023-01-01T07:11:04.714Z,13.04
2023-01-01T07:13:31.451Z,13.05
2023-01-01T07:15:58.343Z,13.03
2023-01-01T07:18:25.914Z,13.06
2023-01-01T07:20:56.812Z,13.18
2023-01-01T07:23:23.819Z,13.19
2023-01-01T07:25:51.738Z,13.18
2023-01-01T07:28:18.564Z,13.12
2023-01-01T07:30:45.394Z,13.05
2023-01-01T07:33:13.819Z,12.99
2023-01-01T07:35:41.213Z,12.96
2023-01-01T07:38:08.097Z,12.93
2023-01-01T07:40:34.640Z,12.92
2023-01-01T07:43:01.168Z,12.93
2023-01-01T07:45:27.957Z,12.95
2023-01-01T07:47:56.254Z,12.95
2023-01-01T07:50:24.502Z,12.97
2023-01-01T07:52:51.247Z,13.07
2023-01-01T07:55:19.267Z,12.99
2023-01-01T07:57:47.776Z,13.08
2023-01-01T08:00:16.894Z,13.14
2023-01-01T08:02:43.889Z,13.17
2023-01-01T08:05:10.827Z,13.11
2023-01-01T08:07:37.730Z,13.14
2023-01-01T08:10:06.275Z,13.06
2023-01-01T08:12:33.451Z,13.06
2023-01-01T08:14:59.857Z,13.10
2023-01-01T08:17:26.306Z,13.00
2023-01-01T08:19:52.884Z,13.13
2023-01-01T08:22:19.354Z,13.32
2023-01-01T08:24:45.766Z,13.20
2023-01-01T08:27:14.502Z,13.31
2023-01-01T08:29:41.447Z,13.21
2023-01-01T08:32:07.880Z,13.16
2023-01-01T08:34:34.368Z,13.11
2023-01-01T08:37:01.056Z,13.11
2023-01-01T08:39:27.587Z,13.11
2023-01-01T08:41:54.234Z,13.13
2023-01-01T08:44:20.666Z,13.20
2023-01-01T08:46:47.257Z,13.41
2023-01-01T08:49:13.783Z,13.34
2023-01-01T08:51:40.896Z,13.37
2023-01-01T08:54:07.416Z,13.43
2023-01-01T08:56:33.869Z,13.38
2023-01-01T08:59:04.102Z,13.34
2023-01-01T09:01:31.466Z,13.34
2023-01-01T09:03:58.112Z,13.31
2023-01-01T09:06:24.570Z,13.23
2023-01-01T09:08:51.530Z,13.32
2023-01-01T09:11:28.962Z,13.23
2023-01-01T09:13:55.575Z,13.22
2023-01-01T09:16:23.193Z,13.26
2023-01-01T09:18:49.866Z,13.40
2023-01-01T09:21:16.392Z,13.31
2023-01-01T09:23:42.891Z,13.31
2023-01-01T09:26:10.498Z,13.27
2023-01-01T09:28:37.882Z,13.32
2023-01-01T09:31:06.468Z,13.23
2023-01-01T09:33:34.304Z,13.18
2023-01-01T09:36:19.106Z,13.17
2023-01-01T09:38:49.818Z,13.21
2023-01-01T09:41:44.249Z,13.27
2023-01-01T09:44:28.784Z,13.30
2023-01-01T09:47:00.398Z,13.33
2023-01-01T09:49:38.035Z,13.26
2023-01-01T09:52:05.708Z,13.25
2023-01-01T09:54:40.673Z,13.25
2023-01-01T09:57:16.295Z,13.26
2023-01-01T09:59:43.194Z,13.24
2023-01-01T10:02:46.793Z,13.21
2023-01-01T10:05:26.921Z,13.16
2023-01-01T10:07:59.720Z,13.29
2023-01-01T10:10:45.045Z,13.26
2023-01-01T10:13:53.849Z,13.21
2023-01-01T10:16:24.238Z,13.31
2023-01-01T10:18:56.003Z,13.30
2023-01-01T10:21:38.638Z,13.25
2023-01-01T10:24:31.699Z,13.35
2023-01-01T10:26:59.250Z,13.37
2023-01-01T10:29:43.658Z,13.33
2023-01-01T10:32:21.575Z,13.25
2023-01-01T10:34:50.747Z,13.22
2023-01-01T10:37:18.076Z,13.21
2023-01-01T10:39:46.838Z,13.20
2023-01-01T10:42:14.643Z,13.20
2023-01-01T10:44:42.314Z,13.33
2023-01-01T10:47:29.913Z,13.32
2023-01-01T10:49:57.992Z,13.33
2023-01-01T10:52:28.111Z,13.36
2023-01-01T10:54:55.181Z,13.31
2023-01-01T10:57:27.618Z,13.25
2023-01-01T10:59:54.827Z,13.23
2023-01-01T11:02:27.201Z,13.27
2023-01-01T11:05:21.947Z,13.47
2023-01-01T11:07:49.698Z,13.39
2023-01-01T11:10:22.562Z,13.43
2023-01-01T11:13:07.007Z,13.41
2023-01-01T11:15:40.987Z,13.31
2023-01-01T11:18:16.155Z,13.32
2023-01-01T11:20:43.251Z,13.32
2023-01-01T11:23:36.934Z,13.43
2023-01-01T11:26:12.688Z,13.37
2023-01-01T11:28:40.821Z,13.40
2023-01-01T11:31:17.593Z,13.49
2023-01-01T11:33:52.458Z,13.44
2023-01-01T11:36:35.106Z,13.43
2023-01-01T11:39:23.365Z,13.41
2023-01-01T11:41:52.038Z,13.37
2023-01-01T11:44:30.670Z,13.41
2023-01-01T11:46:58.327Z,13.46
2023-01-01T11:49:28.800Z,13.45
2023-01-01T11:51:55.324Z,13.43
2023-01-01T11:54:39.973Z,13.46
2023-01-01T11:57:18.129Z,13.52
2023-01-01T11:59:54.133Z,13.54
2023-01-01T12:02:38.129Z,13.58
2023-01-01T12:05:17.656Z,13.56
2023-01-01T12:07:45.274Z,13.50
2023-01-01T12:10:23.239Z,13.42
2023-01-01T12:13:06.956Z,13.46
2023-01-01T12:15:50.865Z,13.60
2023-01-01T12:18:39.612Z,13.64
2023-01-01T12:21:28.106Z,13.65
2023-01-01T12:23:55.853Z,13.59
2023-01-01T12:26:26.648Z,13.51
2023-01-01T12:29:26.497Z,13.59
2023-01-01T12:32:25.517Z,13.54
2023-01-01T12:35:16.466Z,13.54
2023-01-01T12:37:58.501Z,13.53
2023-01-01T12:40:37.262Z,13.53
2023-01-01T12:43:08.948Z,13.49
2023-01-01T12:46:06.696Z,13.52
2023-01-01T12:49:20.455Z,13.50
2023-01-01T12:52:08.826Z,13.57
2023-01-01T12:55:23.626Z,13.57
2023-01-01T12:58:15.532Z,13.52
2023-01-01T13:00:45.360Z,13.63
2023-01-01T13:03:19.868Z,13.54
2023-01-01T13:05:54.810Z,13.55
2023-01-01T13:08:21.551Z,13.55
2023-01-01T13:10:51.706Z,13.56
2023-01-01T13:13:18.461Z,13.47
2023-01-01T13:15:48.566Z,13.48
2023-01-01T13:18:15.124Z,13.41
2023-01-01T13:20:45.288Z,13.43
2023-01-01T13:23:34.742Z,13.43
2023-01-01T13:26:22.865Z,13.45
2023-01-01T13:28:58.530Z,13.49
2023-01-01T13:31:40.311Z,13.40
2023-01-01T13:34:36.272Z,13.46
2023-01-01T13:37:14.941Z,13.43
2023-01-01T13:40:02.272Z,13.47
2023-01-01T13:42:37.852Z,13.45
2023-01-01T13:45:12.023Z,13.36
2023-01-01T13:48:04.709Z,13.32
2023-01-01T13:50:49.449Z,13.26
2023-01-01T13:53:24.893Z,13.28
2023-01-01T13:55:57.560Z,13.24
2023-01-01T13:58:52.039Z,13.27
2023-01-01T14:01:58.738Z,13.19
2023-01-01T14:04:54.877Z,13.10
2023-01-01T14:07:51.610Z,13.05
2023-01-01T14:10:36.214Z,13.01
2023-01-01T14:13:05.487Z,12.97
2023-01-01T14:15:37.407Z,12.93
2023-01-01T14:18:16.185Z,12.91
2023-01-01T14:20:46.957Z,12.91
2023-01-01T14:23:19.455Z,12.91
2023-01-01T14:25:47.248Z,12.89
2023-01-01T14:28:20.093Z,12.85
2023-01-01T14:30:46.990Z,12.84
2023-01-01T14:33:25.780Z,12.86
2023-01-01T14:35:57.970Z,12.83
2023-01-01T14:38:42.732Z,12.83
2023-01-01T14:41:15.983Z,12.82
2023-01-01T14:43:44.402Z,12.79
2023-01-01T14:46:16.968Z,12.79
2023-01-01T14:48:46.275Z,12.79
2023-01-01T14:51:19.326Z,12.77
2023-01-01T14:53:48.238Z,12.74
2023-01-01T14:56:30.899Z,12.72
2023-01-01T14:59:06.566Z,12.68
2023-01-01T15:01:33.151Z,13.08
2023-01-01T15:04:03.800Z,13.17
2023-01-01T15:06:32.046Z,12.98
2023-01-01T15:08:58.675Z,12.83
2023-01-01T15:11:29.043Z,12.70
2023-01-01T15:14:05.081Z,12.62
2023-01-01T15:16:38.098Z,12.56
2023-01-01T15:19:17.805Z,12.53
2023-01-01T15:21:44.547Z,12.51
2023-01-01T15:24:14.858Z,12.49
2023-01-01T15:26:44.405Z,12.45
2023-01-01T15:29:22.591Z,12.45
2023-01-01T15:31:53.581Z,12.43
2023-01-01T15:34:28.002Z,12.44
2023-01-01T15:36:57.052Z,12.44
2023-01-01T15:39:23.966Z,12.45
2023-01-01T15:41:52.586Z,12.43
2023-01-01T15:44:26.698Z,12.41
2023-01-01T15:47:02.812Z,12.40
2023-01-01T15:49:30.345Z,12.38
2023-01-01T15:52:03.886Z,12.37
2023-01-01T15:54:32.433Z,12.34
2023-01-01T15:56:58.946Z,12.31
2023-01-01T15:59:33.389Z,12.30
2023-01-01T16:02:31.871Z,12.31
2023-01-01T16:04:58.941Z,12.29
2023-01-01T16:07:27.041Z,12.27
2023-01-01T16:09:57.649Z,12.25
2023-01-01T16:12:24.721Z,12.22
2023-01-01T16:14:51.232Z,12.21
2023-01-01T16:17:22.229Z,12.18
2023-01-01T16:19:48.771Z,12.14
2023-01-01T16:22:17.305Z,12.12
2023-01-01T16:24:45.376Z,12.08
2023-01-01T16:27:11.938Z,12.08
2023-01-01T16:29:43.168Z,12.03
2023-01-01T16:32:19.454Z,12.02
2023-01-01T16:34:46.041Z,11.99
2023-01-01T16:37:12.494Z,11.96
2023-01-01T16:39:39.032Z,11.94
2023-01-01T16:42:05.572Z,11.90
2023-01-01T16:44:32.076Z,11.89
2023-01-01T16:46:58.659Z,11.87
2023-01-01T16:49:25.132Z,11.84
2023-01-01T16:51:51.666Z,11.83
2023-01-01T16:54:18.072Z,11.80
2023-01-01T16:56:44.522Z,11.78
2023-01-01T16:59:10.958Z,11.76
2023-01-01T17:01:37.548Z,11.75
2023-01-01T17:04:04.311Z,11.74
2023-01-01T17:06:30.776Z,11.71
2023-01-01T17:08:59.821Z,11.70
2023-01-01T17:11:26.727Z,11.70
2023-01-01T17:13:53.223Z,11.68
2023-01-01T17:16:26.944Z,11.65
2023-01-01T17:21:43.533Z,11.60
2023-01-01T17:24:10.355Z,11.60
2023-01-01T17:26:36.841Z,11.59
2023-01-01T17:29:03.385Z,11.56
2023-01-01T17:31:30.665Z,11.55
2023-01-01T17:33:57.574Z,11.56
2023-01-01T17:36:26.977Z,11.51
2023-01-01T17:38:53.759Z,11.49
2023-01-01T17:41:20.474Z,11.47
2023-01-01T17:43:50.141Z,11.50
2023-01-01T17:46:20.495Z,11.50
2023-01-01T17:48:47.183Z,11.50
2023-01-01T17:51:15.265Z,11.48
2023-01-01T17:53:42.169Z,11.45
2023-01-01T17:56:12.284Z,11.44
2023-01-01T17:58:39.552Z,11.42
2023-01-01T18:01:21.573Z,11.44
2023-01-01T18:03:50.196Z,11.44
2023-01-01T18:06:16.650Z,11.42
2023-01-01T18:08:43.090Z,11.41
2023-01-01T18:11:11.871Z,11.40
2023-01-01T18:13:38.384Z,11.38
2023-01-01T18:16:07.349Z,11.37
2023-01-01T18:18:40.587Z,11.35
2023-01-01T18:21:19.382Z,11.35
2023-01-01T18:23:46.442Z,11.35
2023-01-01T18:26:13.065Z,11.37
2023-01-01T18:28:40.220Z,11.37
2023-01-01T18:31:11.797Z,11.36
2023-01-01T18:33:39.655Z,11.33
2023-01-01T18:36:12.080Z,11.29
2023-01-01T18:38:40.566Z,11.28
2023-01-01T18:41:28.932Z,11.29
2023-01-01T18:43:56.027Z,11.27
2023-01-01T18:46:23.446Z,11.25
2023-01-01T18:48:54.012Z,11.27
2023-01-01T18:51:25.604Z,11.23
2023-01-01T18:53:55.751Z,11.22
2023-01-01T18:56:23.213Z,11.22
2023-01-01T18:58:50.628Z,11.22
2023-01-01T19:01:19.751Z,11.20
2023-01-01T19:03:49.100Z,11.20
2023-01-01T19:06:35.789Z,11.21
2023-01-01T19:09:22.485Z,11.21
2023-01-01T19:11:50.801Z,11.21
2023-01-01T19:14:23.315Z,11.21
2023-01-01T19:16:54.908Z,11.21
2023-01-01T19:19:26.128Z,11.20
2023-01-01T19:22:01.615Z,11.19
2023-01-01T19:24:31.381Z,11.18
2023-01-01T19:27:33.339Z,11.16
2023-01-01T19:30:02.102Z,11.17
2023-01-01T19:32:28.551Z,11.18
2023-01-01T19:34:56.459Z,11.18
2023-01-01T19:37:22.886Z,11.19
2023-01-01T19:39:50.374Z,11.18
2023-01-01T19:42:16.785Z,11.15
2023-01-01T19:44:43.244Z,11.18
2023-01-01T19:47:10.547Z,11.17
2023-01-01T19:49:37.029Z,11.18
2023-01-01T19:52:03.733Z,11.18
2023-01-01T19:54:30.295Z,11.18
2023-01-01T19:56:57.173Z,11.19
2023-01-01T19:59:27.764Z,11.18
2023-01-01T20:02:34.928Z,11.17
2023-01-01T20:04:45.767Z,11.17
2023-01-01T20:07:12.371Z,11.16
2023-01-01T20:09:38.809Z,11.15
2023-01-01T20:12:05.421Z,11.13
2023-01-01T20:14:31.908Z,11.13
2023-01-01T20:16:58.941Z,11.15
2023-01-01T20:19:25.522Z,11.14
2023-01-01T20:22:10.492Z,11.13
2023-01-01T20:24:39.156Z,11.10
2023-01-01T20:27:05.641Z,11.10
2023-01-01T20:29:32.141Z,11.09
2023-01-01T20:31:59.084Z,11.09
2023-01-01T20:34:26.342Z,11.09
2023-01-01T20:37:11.214Z,11.11
2023-01-01T20:39:37.962Z,11.12
2023-01-01T20:42:04.596Z,11.13
2023-01-01T20:44:31.276Z,11.13
2023-01-01T20:46:58.111Z,11.14
2023-01-01T20:49:24.676Z,11.13
2023-01-01T20:51:52.841Z,11.16
2023-01-01T20:54:20.586Z,11.15
2023-01-01T20:56:47.232Z,11.18
2023-01-01T20:59:34.154Z,11.18
2023-01-01T21:02:02.359Z,11.19
2023-01-01T21:04:29.000Z,11.19
2023-01-01T21:06:55.557Z,11.18
2023-01-01T21:09:22.085Z,11.18
2023-01-01T21:11:48.669Z,11.19
2023-01-01T21:14:15.105Z,11.19
2023-01-01T21:16:43.941Z,11.19
2023-01-01T21:19:11.166Z,11.22
2023-01-01T21:21:46.402Z,11.24
2023-01-01T21:24:22.655Z,11.23
2023-01-01T21:26:55.064Z,11.22
2023-01-01T21:29:24.185Z,11.23
2023-01-01T21:32:05.257Z,11.22
2023-01-01T21:34:40.361Z,11.26
2023-01-01T21:37:45.672Z,11.28
2023-01-01T21:40:47.125Z,11.30
2023-01-01T21:43:32.272Z,11.31
2023-01-01T21:46:07.528Z,11.36
2023-01-01T21:48:38.753Z,11.36
2023-01-01T21:51:25.147Z,11.42
2023-01-01T21:53:52.229Z,11.44
2023-01-01T21:56:18.641Z,11.48
2023-01-01T21:59:24.070Z,11.53
2023-01-01T22:01:50.828Z,11.50
2023-01-01T22:04:26.115Z,11.51
2023-01-01T22:07:00.397Z,11.51
2023-01-01T22:09:36.302Z,11.58
2023-01-01T22:12:22.545Z,11.60
2023-01-01T22:14:53.596Z,11.67
2023-01-01T22:17:25.133Z,11.66
2023-01-01T22:19:53.281Z,11.66
2023-01-01T22:22:23.149Z,11.66
2023-01-01T22:24:54.602Z,11.64
2023-01-01T22:27:36.603Z,11.69
2023-01-01T22:30:08.810Z,11.70
2023-01-01T22:32:35.391Z,11.69
2023-01-01T22:35:17.168Z,11.71
2023-01-01T22:37:44.631Z,11.75
2023-01-01T22:40:38.181Z,11.72
2023-01-01T22:43:11.496Z,11.68
2023-01-01T22:45:48.860Z,11.70
2023-01-01T22:48:24.507Z,11.70
2023-01-01T22:50:52.515Z,11.72
2023-01-01T22:53:18.947Z,11.70
2023-01-01T22:55:45.937Z,11.74
2023-01-01T22:58:12.600Z,11.76
2023-01-01T23:00:39.049Z,11.79
2023-01-01T23:03:05.644Z,11.81
2023-01-01T23:05:32.272Z,11.95
2023-01-01T23:07:58.988Z,11.92
2023-01-01T23:10:25.515Z,11.90
2023-01-01T23:12:52.005Z,11.92
2023-01-01T23:15:37.069Z,11.93
2023-01-01T23:18:03.720Z,11.94
2023-01-01T23:20:30.712Z,11.95
2023-01-01T23:22:57.320Z,11.96
2023-01-01T23:25:23.977Z,11.98
2023-01-01T23:27:53.061Z,11.99
2023-01-01T23:30:19.781Z,11.99
2023-01-01T23:32:46.643Z,12.02
2023-01-01T23:35:13.207Z,12.05
2023-01-01T23:37:39.828Z,12.08
2023-01-01T23:40:07.173Z,12.05
2023-01-01T23:42:33.747Z,12.08
2023-01-01T23:45:00.177Z,12.10
2023-01-01T23:47:26.815Z,12.13
2023-01-01T23:49:53.303Z,12.11
2023-01-01T23:52:19.758Z,12.11
2023-01-01T23:54:46.218Z,12.14
2023-01-01T23:57:14.132Z,12.11
2023-01-01T23:59:40.572Z,12.08
